createdAt,value
2023-02-21T00:02:58.124Z,56
2023-02-21T00:07:59.583Z,57
2023-02-21T00:13:01.493Z,57
2023-02-21T00:18:03.173Z,57
2023-02-21T00:23:05.198Z,58
2023-02-21T00:28:07.117Z,59
2023-02-21T00:33:08.980Z,59
2023-02-21T00:38:10.260Z,60
2023-02-21T00:43:11.913Z,60
2023-02-21T00:48:13.584Z,61
2023-02-21T00:53:15.400Z,60
2023-02-21T00:58:16.997Z,61
2023-02-21T01:03:18.405Z,61
2023-02-21T01:08:19.482Z,61
2023-02-21T01:13:21.227Z,61
2023-02-21T01:18:23.355Z,61
2023-02-21T01:23:24.592Z,61
2023-02-21T01:28:26.042Z,62
2023-02-21T01:33:27.599Z,62
2023-02-21T01:38:29.353Z,62
2023-02-21T01:43:31.265Z,62
2023-02-21T01:48:32.828Z,62
2023-02-21T01:53:34.474Z,63
2023-02-21T01:58:36.643Z,63
2023-02-21T02:03:38.274Z,63
2023-02-21T02:08:39.927Z,63
2023-02-21T02:13:41.200Z,63
2023-02-21T02:18:43.366Z,64
2023-02-21T02:23:45.080Z,64
2023-02-21T02:28:46.505Z,63
2023-02-21T02:33:48.534Z,64
2023-02-21T02:38:50.027Z,64
2023-02-21T02:43:51.215Z,64
2023-02-21T02:48:52.688Z,64
2023-02-21T02:53:54.389Z,65
2023-02-21T02:58:55.884Z,65
2023-02-21T03:03:57.292Z,65
2023-02-21T03:08:58.752Z,65
2023-02-21T03:14:00.773Z,66
2023-02-21T03:19:02.569Z,66
2023-02-21T03:24:04.353Z,65
2023-02-21T03:29:05.728Z,65
2023-02-21T03:34:07.771Z,66
2023-02-21T03:39:09.498Z,66
2023-02-21T03:44:10.798Z,66
2023-02-21T03:49:12.184Z,66
2023-02-21T03:54:13.843Z,66
2023-02-21T03:59:15.740Z,66
2023-02-21T04:04:17.230Z,66
2023-02-21T04:09:19.247Z,66
2023-02-21T04:14:20.608Z,66
2023-02-21T04:19:21.836Z,67
2023-02-21T04:24:23.449Z,67
2023-02-21T04:29:25.108Z,67
2023-02-21T04:34:26.291Z,66
2023-02-21T04:39:28.449Z,66
2023-02-21T04:44:30.635Z,66
2023-02-21T04:49:31.886Z,66
2023-02-21T04:54:33.729Z,66
2023-02-21T04:59:35.061Z,66
2023-02-21T05:04:36.249Z,65
2023-02-21T05:09:38.166Z,65
2023-02-21T05:09:44.496Z,65
2023-02-21T05:14:46.554Z,66
2023-02-21T05:19:48.003Z,66
2023-02-21T05:24:49.690Z,66
2023-02-21T05:29:51.727Z,66
2023-02-21T05:34:53.521Z,66
2023-02-21T05:39:55.188Z,66
2023-02-21T05:49:58.118Z,67
2023-02-21T05:54:59.822Z,67
2023-02-21T06:10:04.469Z,67
2023-02-21T06:15:05.880Z,67
2023-02-21T06:30:10.476Z,67
2023-02-21T06:35:12.542Z,67
2023-02-21T06:40:14.358Z,67
2023-02-21T06:55:19.467Z,67
2023-02-21T07:05:22.886Z,66
2023-02-21T07:10:24.045Z,66
2023-02-21T07:15:26.029Z,66
2023-02-21T07:20:27.550Z,65
2023-02-21T07:25:29.274Z,64
2023-02-21T07:30:31.029Z,62
2023-02-21T07:35:32.828Z,60
2023-02-21T07:40:34.149Z,57
2023-02-21T07:45:35.770Z,52
2023-02-21T07:50:37.673Z,50
2023-02-21T07:55:39.246Z,49
2023-02-21T08:00:41.341Z,46
2023-02-21T08:05:42.844Z,45
2023-02-21T08:10:44.898Z,44
2023-02-21T08:15:46.131Z,40
2023-02-21T08:20:47.971Z,38
2023-02-21T08:25:49.501Z,36
2023-02-21T08:30:51.187Z,36
2023-02-21T08:35:52.432Z,34
2023-02-21T08:40:54.658Z,32
2023-02-21T08:45:55.414Z,32
2023-02-21T08:50:56.824Z,32
2023-02-21T08:55:58.337Z,30
2023-02-21T09:01:00.277Z,28
2023-02-21T09:06:01.703Z,29
2023-02-21T09:11:03.887Z,27
2023-02-21T09:16:05.273Z,27
2023-02-21T09:21:07.195Z,25
2023-02-21T09:26:08.819Z,26
2023-02-21T09:31:10.522Z,25
2023-02-21T09:36:12.578Z,24
2023-02-21T09:41:14.294Z,24
2023-02-21T09:46:15.892Z,23
2023-02-21T09:51:17.538Z,22
2023-02-21T09:56:18.526Z,22
2023-02-21T10:01:20.152Z,21
2023-02-21T10:06:21.438Z,21
2023-02-21T10:11:23.536Z,20
2023-02-21T10:16:25.165Z,20
2023-02-21T10:21:27.243Z,20
2023-02-21T10:26:28.579Z,19
2023-02-21T10:31:30.150Z,19
2023-02-21T10:36:31.876Z,20
2023-02-21T10:41:33.730Z,19
2023-02-21T10:46:35.065Z,19
2023-02-21T10:51:36.987Z,19
2023-02-21T10:56:38.764Z,20
2023-02-21T11:01:40.388Z,19
2023-02-21T11:06:42.397Z,19
2023-02-21T11:11:43.474Z,20
2023-02-21T11:16:44.893Z,20
2023-02-21T11:21:46.361Z,20
2023-02-21T11:26:47.680Z,20
2023-02-21T11:31:49.900Z,21
2023-02-21T11:36:51.669Z,21
2023-02-21T11:41:52.986Z,21
2023-02-21T11:46:54.443Z,23
2023-02-21T11:51:55.661Z,25
2023-02-21T11:56:57.401Z,25
2023-02-21T12:01:58.742Z,26
2023-02-21T12:06:59.958Z,26
2023-02-21T12:12:02.423Z,27
2023-02-21T12:17:03.782Z,27
2023-02-21T12:22:05.186Z,28
2023-02-21T12:27:06.544Z,29
2023-02-21T12:32:08.841Z,30
2023-02-21T12:37:10.377Z,30
2023-02-21T12:42:12.184Z,32
2023-02-21T12:47:13.468Z,31
2023-02-21T12:52:14.883Z,31
2023-02-21T12:57:16.387Z,33
2023-02-21T13:02:18.108Z,32
2023-02-21T13:07:20.248Z,33
2023-02-21T13:12:21.561Z,33
2023-02-21T13:17:22.826Z,33
2023-02-21T13:22:24.338Z,35
2023-02-21T13:27:25.722Z,35
2023-02-21T13:32:27.319Z,35
2023-02-21T13:37:28.490Z,35
2023-02-21T13:42:30.043Z,35
2023-02-21T13:47:31.765Z,35
2023-02-21T13:52:32.962Z,36
2023-02-21T13:57:34.967Z,36
2023-02-21T14:02:36.662Z,35
2023-02-21T14:07:38.621Z,35
2023-02-21T14:12:40.610Z,36
2023-02-21T14:17:42.052Z,36
2023-02-21T14:22:43.233Z,36
2023-02-21T14:27:45.003Z,37
2023-02-21T14:32:46.780Z,36
2023-02-21T14:37:48.376Z,36
2023-02-21T14:42:50.502Z,37
2023-02-21T14:47:52.191Z,36
2023-02-21T14:52:53.779Z,37
2023-02-21T14:57:55.928Z,36
2023-02-21T15:02:57.237Z,37
2023-02-21T15:07:58.969Z,37
2023-02-21T15:13:00.634Z,37
2023-02-21T15:18:02.612Z,38
2023-02-21T15:23:04.495Z,37
2023-02-21T15:28:05.796Z,37
2023-02-21T15:33:07.430Z,37
2023-02-21T15:38:08.892Z,37
2023-02-21T15:43:10.210Z,38
2023-02-21T15:48:11.656Z,37
2023-02-21T15:53:13.171Z,38
2023-02-21T15:58:14.508Z,38
2023-02-21T16:03:16.123Z,37
2023-02-21T16:08:17.873Z,38
2023-02-21T16:13:19.917Z,39
2023-02-21T16:18:21.836Z,39
2023-02-21T16:23:23.544Z,39
2023-02-21T16:28:25.602Z,39
2023-02-21T16:33:27.464Z,40
2023-02-21T16:38:29.375Z,40
2023-02-21T16:43:31.079Z,41
2023-02-21T16:48:33.462Z,42
2023-02-21T16:53:35.129Z,42
2023-02-21T16:58:36.761Z,43
2023-02-21T17:03:38.435Z,43
2023-02-21T17:08:39.845Z,43
2023-02-21T17:13:41.821Z,44
2023-02-21T17:18:44.156Z,45
2023-02-21T17:23:45.484Z,45
2023-02-21T17:28:47.256Z,45
2023-02-21T17:33:48.478Z,46
2023-02-21T17:38:50.102Z,48
2023-02-21T17:43:52.112Z,47
2023-02-21T17:48:53.416Z,49
2023-02-21T17:53:54.980Z,50
2023-02-21T17:58:56.688Z,49
2023-02-21T18:03:58.744Z,49
2023-02-21T18:09:00.107Z,51
2023-02-21T18:14:01.477Z,52
2023-02-21T18:19:03.595Z,52
2023-02-21T18:24:04.889Z,53
2023-02-21T18:29:06.258Z,53
2023-02-21T18:34:08.475Z,53
2023-02-21T18:39:09.700Z,54
2023-02-21T18:44:11.018Z,55
2023-02-21T18:49:12.606Z,56
2023-02-21T18:54:14.023Z,55
2023-02-21T18:59:15.396Z,56
2023-02-21T19:04:17.251Z,56
2023-02-21T19:09:18.802Z,56
2023-02-21T19:14:20.885Z,56
2023-02-21T19:19:22.432Z,58
2023-02-21T19:24:24.215Z,58
2023-02-21T19:29:26.375Z,57
2023-02-21T19:34:28.182Z,58
2023-02-21T19:39:29.845Z,58
2023-02-21T19:44:31.562Z,59
2023-02-21T19:49:33.756Z,60
2023-02-21T19:54:35.672Z,60
2023-02-21T19:59:37.223Z,61
2023-02-21T20:04:38.638Z,59
2023-02-21T20:09:40.441Z,60
2023-02-21T20:14:41.855Z,61
2023-02-21T20:19:43.554Z,61
2023-02-21T20:24:45.507Z,61
2023-02-21T20:29:47.500Z,61
2023-02-21T20:34:49.603Z,63
2023-02-21T20:39:50.806Z,61
2023-02-21T20:44:52.271Z,62
2023-02-21T20:49:54.127Z,62
2023-02-21T20:54:55.510Z,63
2023-02-21T21:20:02.769Z,63
2023-02-21T21:30:05.944Z,65
2023-02-21T21:35:08.511Z,64
2023-02-21T21:40:09.702Z,65
2023-02-21T21:55:14.603Z,65
2023-02-21T22:00:22.484Z,65
2023-02-21T22:05:24.271Z,66
2023-02-21T22:10:25.797Z,65
2023-02-21T22:15:27.075Z,65
2023-02-21T22:20:28.933Z,66
2023-02-21T22:25:30.301Z,66
2023-02-21T22:30:32.400Z,66
2023-02-21T22:35:34.187Z,66
2023-02-21T22:40:35.638Z,67
2023-02-21T22:45:37.107Z,67
2023-02-21T22:50:39.213Z,67
2023-02-21T22:55:40.871Z,67
2023-02-21T23:15:46.783Z,69
2023-02-21T23:20:48.472Z,69
2023-02-21T23:25:49.850Z,70
2023-02-21T23:30:51.940Z,70
2023-02-21T23:35:53.563Z,71
2023-02-21T23:40:55.238Z,71
2023-02-21T23:45:56.548Z,70
2023-02-21T23:50:58.346Z,71
2023-02-21T23:56:01.161Z,72
